KOFK/OFK METAR and TAF weather

Enter ICAO airport designator
Station Type Date Time Source
KOFK METAR 2022/05/23 14:56 UTC NOAA

KOFK 231456Z AUTO 16006KT 10SM CLR 14/04 A3027 RMK AO2 SLP249 T01440039 50001


Station Type Date Time Source
KOFK Decoded METAR 2022/05/23 14:56 UTC NOAA

KARL STEFAN MEMORIAL AIRPORT, NE, United States (KOFK) 41-59N 097-26W 470M
May 23, 2022 - 10:56 AM EDT / 2022.05.23 1456 UTC
Wind: from the SSE (160 degrees) at 7 MPH (6 KT):0
Visibility: 10 mile(s):0
Sky conditions: clear
Temperature: 57.9 F (14.4 C)
Dew Point: 39.0 F (3.9 C)
Relative Humidity: 49%
Pressure (altimeter): 30.27 in. Hg (1025 hPa)
Pressure tendency: 0.00 inches (0.1 hPa) higher than three hours ago
ob: KOFK 231456Z AUTO 16006KT 10SM CLR 14/04 A3027 RMK AO2 SLP249 T01440039 50001
cycle: 15

Station Type Date Time Source
KOFK TAF 2022/05/23 12:22 UTC NOAA

TAF KOFK 231120Z 2312/2412 12005KT P6SM BKN100
FM231900 16012KT 6SM -SHRA BR OVC050
FM240300 10007KT P6SM OVC030

Example: see airport list